sensor_id;sensor_type;location;lat;lon;timestamp;P1;durP1;ratioP1;P2;durP2;ratioP2
6177;SDS011;3122;48.208;11.174;2023-04-03T00:03:02;10.33;;;6.73;;
6177;SDS011;3122;48.208;11.174;2023-04-03T00:08:03;9.97;;;7.30;;
6177;SDS011;3122;48.208;11.174;2023-04-03T00:13:07;9.83;;;7.40;;
6177;SDS011;3122;48.208;11.174;2023-04-03T00:18:09;8.73;;;6.90;;
6177;SDS011;3122;48.208;11.174;2023-04-03T00:23:09;9.70;;;7.20;;
6177;SDS011;3122;48.208;11.174;2023-04-03T00:28:10;10.73;;;8.23;;
6177;SDS011;3122;48.208;11.174;2023-04-03T00:33:11;8.80;;;6.80;;
6177;SDS011;3122;48.208;11.174;2023-04-03T00:38:13;10.90;;;6.53;;
6177;SDS011;3122;48.208;11.174;2023-04-03T00:43:24;9.97;;;6.60;;
6177;SDS011;3122;48.208;11.174;2023-04-03T00:53:41;8.13;;;5.50;;
6177;SDS011;3122;48.208;11.174;2023-04-03T01:03:53;4.97;;;4.40;;
6177;SDS011;3122;48.208;11.174;2023-04-03T01:08:55;5.40;;;4.73;;
6177;SDS011;3122;48.208;11.174;2023-04-03T01:13:56;5.27;;;4.47;;
6177;SDS011;3122;48.208;11.174;2023-04-03T01:18:57;8.37;;;5.20;;
6177;SDS011;3122;48.208;11.174;2023-04-03T01:24:32;4.53;;;4.13;;
6177;SDS011;3122;48.208;11.174;2023-04-03T01:29:28;4.57;;;4.13;;
6177;SDS011;3122;48.208;11.174;2023-04-03T01:34:28;3.93;;;3.60;;
6177;SDS011;3122;48.208;11.174;2023-04-03T01:39:29;4.10;;;3.70;;
6177;SDS011;3122;48.208;11.174;2023-04-03T01:44:30;4.10;;;3.60;;
6177;SDS011;3122;48.208;11.174;2023-04-03T01:49:31;3.93;;;3.53;;
6177;SDS011;3122;48.208;11.174;2023-04-03T01:54:31;3.50;;;3.20;;
6177;SDS011;3122;48.208;11.174;2023-04-03T01:59:32;3.70;;;3.40;;
6177;SDS011;3122;48.208;11.174;2023-04-03T02:04:32;5.80;;;3.90;;
6177;SDS011;3122;48.208;11.174;2023-04-03T02:09:33;4.40;;;3.40;;
6177;SDS011;3122;48.208;11.174;2023-04-03T02:14:33;4.10;;;3.70;;
6177;SDS011;3122;48.208;11.174;2023-04-03T02:19:34;4.40;;;3.60;;
6177;SDS011;3122;48.208;11.174;2023-04-03T02:24:35;4.43;;;3.87;;
6177;SDS011;3122;48.208;11.174;2023-04-03T02:29:36;3.53;;;3.23;;
6177;SDS011;3122;48.208;11.174;2023-04-03T02:34:36;3.93;;;3.37;;
6177;SDS011;3122;48.208;11.174;2023-04-03T02:39:37;5.23;;;3.60;;
6177;SDS011;3122;48.208;11.174;2023-04-03T02:44:37;5.40;;;3.43;;
6177;SDS011;3122;48.208;11.174;2023-04-03T02:49:38;4.27;;;3.87;;
6177;SDS011;3122;48.208;11.174;2023-04-03T02:54:39;3.60;;;3.30;;
6177;SDS011;3122;48.208;11.174;2023-04-03T02:59:40;4.23;;;3.30;;
6177;SDS011;3122;48.208;11.174;2023-04-03T03:04:40;4.17;;;3.77;;
6177;SDS011;3122;48.208;11.174;2023-04-03T03:09:41;3.93;;;3.63;;
6177;SDS011;3122;48.208;11.174;2023-04-03T03:14:41;4.33;;;3.93;;
6177;SDS011;3122;48.208;11.174;2023-04-03T03:19:43;3.60;;;3.30;;
6177;SDS011;3122;48.208;11.174;2023-04-03T03:24:44;3.80;;;3.50;;
6177;SDS011;3122;48.208;11.174;2023-04-03T03:29:44;4.37;;;3.97;;
6177;SDS011;3122;48.208;11.174;2023-04-03T03:34:45;3.97;;;3.50;;
6177;SDS011;3122;48.208;11.174;2023-04-03T03:39:45;4.80;;;3.73;;
6177;SDS011;3122;48.208;11.174;2023-04-03T03:44:46;3.97;;;3.60;;
6177;SDS011;3122;48.208;11.174;2023-04-03T03:49:46;5.90;;;3.90;;
6177;SDS011;3122;48.208;11.174;2023-04-03T03:54:47;5.33;;;4.07;;
6177;SDS011;3122;48.208;11.174;2023-04-03T03:59:47;4.10;;;3.80;;
6177;SDS011;3122;48.208;11.174;2023-04-03T04:04:48;7.43;;;4.23;;
6177;SDS011;3122;48.208;11.174;2023-04-03T04:09:49;4.63;;;4.23;;
6177;SDS011;3122;48.208;11.174;2023-04-03T04:14:50;6.10;;;4.00;;
6177;SDS011;3122;48.208;11.174;2023-04-03T04:19:50;4.10;;;3.70;;
6177;SDS011;3122;48.208;11.174;2023-04-03T04:24:51;4.87;;;4.00;;
6177;SDS011;3122;48.208;11.174;2023-04-03T04:29:51;6.03;;;4.60;;
6177;SDS011;3122;48.208;11.174;2023-04-03T04:34:52;5.97;;;3.67;;
6177;SDS011;3122;48.208;11.174;2023-04-03T04:39:52;4.87;;;4.00;;
6177;SDS011;3122;48.208;11.174;2023-04-03T04:44:53;7.60;;;4.50;;
6177;SDS011;3122;48.208;11.174;2023-04-03T04:49:54;6.07;;;4.30;;
6177;SDS011;3122;48.208;11.174;2023-04-03T04:54:54;4.33;;;3.93;;
6177;SDS011;3122;48.208;11.174;2023-04-03T04:59:55;9.47;;;4.40;;
6177;SDS011;3122;48.208;11.174;2023-04-03T05:04:55;5.07;;;4.20;;
6177;SDS011;3122;48.208;11.174;2023-04-03T05:09:56;4.20;;;3.80;;
6177;SDS011;3122;48.208;11.174;2023-04-03T05:14:56;5.20;;;4.70;;
6177;SDS011;3122;48.208;11.174;2023-04-03T05:19:57;4.87;;;4.37;;
6177;SDS011;3122;48.208;11.174;2023-04-03T05:24:58;5.80;;;4.10;;
6177;SDS011;3122;48.208;11.174;2023-04-03T05:29:58;4.83;;;4.33;;
6177;SDS011;3122;48.208;11.174;2023-04-03T05:34:59;7.97;;;4.57;;
6177;SDS011;3122;48.208;11.174;2023-04-03T05:40:00;7.00;;;4.90;;
6177;SDS011;3122;48.208;11.174;2023-04-03T05:45:00;5.40;;;4.90;;
6177;SDS011;3122;48.208;11.174;2023-04-03T05:50:01;4.43;;;3.97;;
6177;SDS011;3122;48.208;11.174;2023-04-03T05:55:03;5.77;;;4.90;;
6177;SDS011;3122;48.208;11.174;2023-04-03T06:00:05;5.80;;;5.00;;
6177;SDS011;3122;48.208;11.174;2023-04-03T06:05:06;5.83;;;4.67;;
6177;SDS011;3122;48.208;11.174;2023-04-03T06:10:08;7.50;;;4.80;;
6177;SDS011;3122;48.208;11.174;2023-04-03T06:15:11;6.07;;;4.53;;
6177;SDS011;3122;48.208;11.174;2023-04-03T06:20:11;6.73;;;4.90;;
6177;SDS011;3122;48.208;11.174;2023-04-03T06:25:12;4.83;;;4.33;;
6177;SDS011;3122;48.208;11.174;2023-04-03T06:30:13;5.97;;;5.10;;
6177;SDS011;3122;48.208;11.174;2023-04-03T06:35:13;6.90;;;5.13;;
6177;SDS011;3122;48.208;11.174;2023-04-03T06:40:15;6.30;;;5.00;;
6177;SDS011;3122;48.208;11.174;2023-04-03T06:45:20;5.10;;;4.53;;
6177;SDS011;3122;48.208;11.174;2023-04-03T06:50:21;14.50;;;5.27;;
6177;SDS011;3122;48.208;11.174;2023-04-03T06:55:22;6.43;;;5.10;;
6177;SDS011;3122;48.208;11.174;2023-04-03T07:00:23;5.37;;;4.77;;
6177;SDS011;3122;48.208;11.174;2023-04-03T07:05:24;8.77;;;5.40;;
6177;SDS011;3122;48.208;11.174;2023-04-03T07:10:26;9.00;;;5.90;;
6177;SDS011;3122;48.208;11.174;2023-04-03T07:15:26;8.63;;;5.43;;
6177;SDS011;3122;48.208;11.174;2023-04-03T07:20:28;7.07;;;5.90;;
6177;SDS011;3122;48.208;11.174;2023-04-03T07:25:28;7.60;;;5.20;;
6177;SDS011;3122;48.208;11.174;2023-04-03T07:30:29;5.63;;;4.97;;
6177;SDS011;3122;48.208;11.174;2023-04-03T07:35:30;6.77;;;5.40;;
6177;SDS011;3122;48.208;11.174;2023-04-03T07:40:31;8.13;;;5.00;;
6177;SDS011;3122;48.208;11.174;2023-04-03T07:45:34;5.93;;;5.33;;
6177;SDS011;3122;48.208;11.174;2023-04-03T07:50:34;5.47;;;4.97;;
6177;SDS011;3122;48.208;11.174;2023-04-03T07:55:36;8.70;;;5.70;;
6177;SDS011;3122;48.208;11.174;2023-04-03T08:00:42;7.80;;;5.13;;
6177;SDS011;3122;48.208;11.174;2023-04-03T08:05:44;7.37;;;5.53;;
6177;SDS011;3122;48.208;11.174;2023-04-03T08:10:50;6.23;;;5.63;;
6177;SDS011;3122;48.208;11.174;2023-04-03T08:15:52;7.07;;;6.37;;
6177;SDS011;3122;48.208;11.174;2023-04-03T08:20:53;9.73;;;6.70;;
6177;SDS011;3122;48.208;11.174;2023-04-03T08:25:53;7.60;;;5.63;;
6177;SDS011;3122;48.208;11.174;2023-04-03T08:30:54;8.50;;;5.80;;
6177;SDS011;3122;48.208;11.174;2023-04-03T08:35:56;6.30;;;5.67;;
6177;SDS011;3122;48.208;11.174;2023-04-03T08:46:43;6.47;;;5.63;;
6177;SDS011;3122;48.208;11.174;2023-04-03T08:52:10;6.37;;;5.37;;
6177;SDS011;3122;48.208;11.174;2023-04-03T08:57:12;8.47;;;5.17;;
6177;SDS011;3122;48.208;11.174;2023-04-03T09:02:18;6.30;;;5.13;;
6177;SDS011;3122;48.208;11.174;2023-04-03T09:07:35;6.57;;;5.60;;
6177;SDS011;3122;48.208;11.174;2023-04-03T09:12:46;6.10;;;5.10;;
6177;SDS011;3122;48.208;11.174;2023-04-03T09:17:58;7.37;;;5.20;;
6177;SDS011;3122;48.208;11.174;2023-04-03T09:23:10;5.40;;;4.87;;
6177;SDS011;3122;48.208;11.174;2023-04-03T09:28:19;25.80;;;19.10;;
6177;SDS011;3122;48.208;11.174;2023-04-03T09:33:20;6.53;;;5.47;;
6177;SDS011;3122;48.208;11.174;2023-04-03T09:38:22;6.50;;;5.53;;
6177;SDS011;3122;48.208;11.174;2023-04-03T09:43:25;5.80;;;5.30;;
6177;SDS011;3122;48.208;11.174;2023-04-03T09:48:27;5.47;;;4.80;;
6177;SDS011;3122;48.208;11.174;2023-04-03T09:58:38;5.67;;;4.77;;
6177;SDS011;3122;48.208;11.174;2023-04-03T10:03:41;5.80;;;5.27;;
6177;SDS011;3122;48.208;11.174;2023-04-03T10:08:46;5.60;;;4.80;;
6177;SDS011;3122;48.208;11.174;2023-04-03T10:14:15;7.43;;;4.80;;
6177;SDS011;3122;48.208;11.174;2023-04-03T10:34:48;5.90;;;5.30;;
6177;SDS011;3122;48.208;11.174;2023-04-03T10:51:12;6.57;;;5.37;;
6177;SDS011;3122;48.208;11.174;2023-04-03T10:56:35;9.53;;;5.23;;
6177;SDS011;3122;48.208;11.174;2023-04-03T11:01:41;5.13;;;4.70;;
6177;SDS011;3122;48.208;11.174;2023-04-03T11:06:48;5.90;;;5.20;;
6177;SDS011;3122;48.208;11.174;2023-04-03T11:11:55;5.50;;;5.00;;
6177;SDS011;3122;48.208;11.174;2023-04-03T11:27:27;6.40;;;5.60;;
6177;SDS011;3122;48.208;11.174;2023-04-03T11:32:43;7.20;;;5.50;;
6177;SDS011;3122;48.208;11.174;2023-04-03T11:37:50;7.97;;;5.07;;
6177;SDS011;3122;48.208;11.174;2023-04-03T11:42:52;5.90;;;4.77;;
6177;SDS011;3122;48.208;11.174;2023-04-03T11:53:34;7.00;;;4.60;;
6177;SDS011;3122;48.208;11.174;2023-04-03T11:58:36;8.20;;;4.30;;
6177;SDS011;3122;48.208;11.174;2023-04-03T12:39:41;3.83;;;3.53;;
6177;SDS011;3122;48.208;11.174;2023-04-03T12:44:51;3.37;;;3.10;;
6177;SDS011;3122;48.208;11.174;2023-04-03T12:49:56;3.93;;;3.30;;
6177;SDS011;3122;48.208;11.174;2023-04-03T12:54:59;3.53;;;3.17;;
6177;SDS011;3122;48.208;11.174;2023-04-03T13:00:20;6.03;;;3.60;;
6177;SDS011;3122;48.208;11.174;2023-04-03T13:05:33;3.47;;;3.17;;
6177;SDS011;3122;48.208;11.174;2023-04-03T13:10:43;3.50;;;3.03;;
6177;SDS011;3122;48.208;11.174;2023-04-03T13:16:10;3.43;;;3.20;;
6177;SDS011;3122;48.208;11.174;2023-04-03T13:21:15;2.93;;;2.73;;
6177;SDS011;3122;48.208;11.174;2023-04-03T13:26:18;3.00;;;2.77;;
6177;SDS011;3122;48.208;11.174;2023-04-03T13:31:32;2.93;;;2.73;;
6177;SDS011;3122;48.208;11.174;2023-04-03T13:36:44;3.23;;;3.00;;
6177;SDS011;3122;48.208;11.174;2023-04-03T13:41:56;3.87;;;3.47;;
6177;SDS011;3122;48.208;11.174;2023-04-03T13:57:48;3.40;;;2.73;;
6177;SDS011;3122;48.208;11.174;2023-04-03T14:02:50;4.17;;;2.80;;
6177;SDS011;3122;48.208;11.174;2023-04-03T14:07:56;4.27;;;2.73;;
6177;SDS011;3122;48.208;11.174;2023-04-03T14:12:56;4.30;;;3.00;;
6177;SDS011;3122;48.208;11.174;2023-04-03T14:17:57;2.30;;;2.10;;
6177;SDS011;3122;48.208;11.174;2023-04-03T14:22:58;3.50;;;2.60;;
6177;SDS011;3122;48.208;11.174;2023-04-03T14:27:59;4.37;;;2.40;;
6177;SDS011;3122;48.208;11.174;2023-04-03T14:33:00;4.17;;;2.23;;
6177;SDS011;3122;48.208;11.174;2023-04-03T14:38:00;3.73;;;2.40;;
6177;SDS011;3122;48.208;11.174;2023-04-03T14:43:01;3.20;;;2.73;;
6177;SDS011;3122;48.208;11.174;2023-04-03T14:48:02;3.37;;;2.30;;
6177;SDS011;3122;48.208;11.174;2023-04-03T14:53:03;3.10;;;2.73;;
6177;SDS011;3122;48.208;11.174;2023-04-03T14:58:04;2.73;;;2.50;;
6177;SDS011;3122;48.208;11.174;2023-04-03T15:03:05;2.63;;;2.43;;
6177;SDS011;3122;48.208;11.174;2023-04-03T15:08:08;3.17;;;2.27;;
6177;SDS011;3122;48.208;11.174;2023-04-03T15:13:20;4.23;;;2.30;;
6177;SDS011;3122;48.208;11.174;2023-04-03T15:18:24;24.83;;;13.03;;
6177;SDS011;3122;48.208;11.174;2023-04-03T15:23:26;46.43;;;24.60;;
6177;SDS011;3122;48.208;11.174;2023-04-03T15:33:31;6.90;;;2.57;;
6177;SDS011;3122;48.208;11.174;2023-04-03T15:38:32;3.00;;;2.80;;
6177;SDS011;3122;48.208;11.174;2023-04-03T15:43:33;2.40;;;2.20;;
6177;SDS011;3122;48.208;11.174;2023-04-03T15:48:36;2.23;;;2.00;;
6177;SDS011;3122;48.208;11.174;2023-04-03T15:53:36;2.67;;;2.10;;
6177;SDS011;3122;48.208;11.174;2023-04-03T15:58:37;13.17;;;7.93;;
6177;SDS011;3122;48.208;11.174;2023-04-03T16:03:39;7.57;;;4.90;;
6177;SDS011;3122;48.208;11.174;2023-04-03T16:08:45;14.07;;;8.10;;
6177;SDS011;3122;48.208;11.174;2023-04-03T16:13:47;14.63;;;9.57;;
6177;SDS011;3122;48.208;11.174;2023-04-03T16:18:48;10.90;;;8.40;;
6177;SDS011;3122;48.208;11.174;2023-04-03T16:23:49;3.73;;;3.10;;
6177;SDS011;3122;48.208;11.174;2023-04-03T16:28:50;3.37;;;2.37;;
6177;SDS011;3122;48.208;11.174;2023-04-03T16:33:51;2.77;;;2.53;;
6177;SDS011;3122;48.208;11.174;2023-04-03T16:38:52;3.17;;;2.87;;
6177;SDS011;3122;48.208;11.174;2023-04-03T16:43:53;4.93;;;3.37;;
6177;SDS011;3122;48.208;11.174;2023-04-03T16:48:53;4.40;;;3.33;;
6177;SDS011;3122;48.208;11.174;2023-04-03T16:53:54;7.27;;;5.33;;
6177;SDS011;3122;48.208;11.174;2023-04-03T16:58:55;11.23;;;5.57;;
6177;SDS011;3122;48.208;11.174;2023-04-03T17:03:56;81.33;;;33.03;;
6177;SDS011;3122;48.208;11.174;2023-04-03T17:08:57;21.00;;;10.60;;
6177;SDS011;3122;48.208;11.174;2023-04-03T17:13:58;3.73;;;3.37;;
6177;SDS011;3122;48.208;11.174;2023-04-03T17:18:59;3.43;;;2.97;;
6177;SDS011;3122;48.208;11.174;2023-04-03T17:24:02;4.47;;;3.70;;
6177;SDS011;3122;48.208;11.174;2023-04-03T17:29:08;4.27;;;2.70;;
6177;SDS011;3122;48.208;11.174;2023-04-03T17:34:09;3.27;;;2.60;;
6177;SDS011;3122;48.208;11.174;2023-04-03T17:39:13;4.17;;;3.53;;
6177;SDS011;3122;48.208;11.174;2023-04-03T17:44:14;12.57;;;6.90;;
6177;SDS011;3122;48.208;11.174;2023-04-03T17:49:15;4.23;;;2.93;;
6177;SDS011;3122;48.208;11.174;2023-04-03T17:54:17;4.03;;;3.63;;
6177;SDS011;3122;48.208;11.174;2023-04-03T17:59:20;3.07;;;2.60;;
6177;SDS011;3122;48.208;11.174;2023-04-03T18:04:21;4.53;;;2.73;;
6177;SDS011;3122;48.208;11.174;2023-04-03T18:09:24;5.80;;;2.77;;
6177;SDS011;3122;48.208;11.174;2023-04-03T18:14:28;6.47;;;3.80;;
6177;SDS011;3122;48.208;11.174;2023-04-03T18:19:29;5.23;;;3.60;;
6177;SDS011;3122;48.208;11.174;2023-04-03T18:24:34;5.60;;;3.10;;
6177;SDS011;3122;48.208;11.174;2023-04-03T18:29:36;84.13;;;29.37;;
6177;SDS011;3122;48.208;11.174;2023-04-03T18:34:39;154.77;;;41.40;;
6177;SDS011;3122;48.208;11.174;2023-04-03T18:39:40;379.70;;;104.90;;
6177;SDS011;3122;48.208;11.174;2023-04-03T18:44:42;105.50;;;36.37;;
6177;SDS011;3122;48.208;11.174;2023-04-03T18:49:46;95.43;;;36.27;;
6177;SDS011;3122;48.208;11.174;2023-04-03T18:54:47;102.43;;;40.60;;
6177;SDS011;3122;48.208;11.174;2023-04-03T18:59:48;47.87;;;20.60;;
6177;SDS011;3122;48.208;11.174;2023-04-03T19:04:49;57.33;;;26.83;;
6177;SDS011;3122;48.208;11.174;2023-04-03T19:09:51;63.20;;;25.73;;
6177;SDS011;3122;48.208;11.174;2023-04-03T19:14:52;40.60;;;22.70;;
6177;SDS011;3122;48.208;11.174;2023-04-03T19:19:53;32.30;;;19.30;;
6177;SDS011;3122;48.208;11.174;2023-04-03T19:24:54;19.90;;;13.23;;
6177;SDS011;3122;48.208;11.174;2023-04-03T19:29:55;11.37;;;7.57;;
6177;SDS011;3122;48.208;11.174;2023-04-03T19:34:57;14.33;;;9.17;;
6177;SDS011;3122;48.208;11.174;2023-04-03T19:39:58;54.17;;;24.07;;
6177;SDS011;3122;48.208;11.174;2023-04-03T19:44:59;113.10;;;50.30;;
6177;SDS011;3122;48.208;11.174;2023-04-03T19:50:01;45.70;;;25.97;;
6177;SDS011;3122;48.208;11.174;2023-04-03T19:55:02;17.93;;;9.60;;
6177;SDS011;3122;48.208;11.174;2023-04-03T20:00:04;4.63;;;4.03;;
6177;SDS011;3122;48.208;11.174;2023-04-03T20:05:05;20.83;;;9.27;;
6177;SDS011;3122;48.208;11.174;2023-04-03T20:10:08;14.10;;;8.67;;
6177;SDS011;3122;48.208;11.174;2023-04-03T20:15:11;11.90;;;8.10;;
6177;SDS011;3122;48.208;11.174;2023-04-03T20:20:13;14.23;;;9.57;;
6177;SDS011;3122;48.208;11.174;2023-04-03T20:25:15;8.63;;;5.47;;
6177;SDS011;3122;48.208;11.174;2023-04-03T20:30:16;7.10;;;4.47;;
6177;SDS011;3122;48.208;11.174;2023-04-03T20:35:17;4.50;;;3.37;;
6177;SDS011;3122;48.208;11.174;2023-04-03T20:40:19;5.53;;;3.67;;
6177;SDS011;3122;48.208;11.174;2023-04-03T20:45:20;6.30;;;3.80;;
6177;SDS011;3122;48.208;11.174;2023-04-03T20:50:20;3.90;;;3.50;;
6177;SDS011;3122;48.208;11.174;2023-04-03T20:55:21;8.03;;;3.10;;
6177;SDS011;3122;48.208;11.174;2023-04-03T21:00:22;2.73;;;2.53;;
6177;SDS011;3122;48.208;11.174;2023-04-03T21:05:24;3.60;;;2.80;;
6177;SDS011;3122;48.208;11.174;2023-04-03T21:21:15;3.50;;;3.20;;
6177;SDS011;3122;48.208;11.174;2023-04-03T21:26:19;3.70;;;3.40;;
6177;SDS011;3122;48.208;11.174;2023-04-03T21:31:24;7.70;;;5.20;;
6177;SDS011;3122;48.208;11.174;2023-04-03T21:36:47;23.63;;;8.60;;
6177;SDS011;3122;48.208;11.174;2023-04-03T21:41:49;34.83;;;13.50;;
6177;SDS011;3122;48.208;11.174;2023-04-03T21:46:52;25.40;;;10.83;;
6177;SDS011;3122;48.208;11.174;2023-04-03T21:51:54;5.47;;;3.90;;
6177;SDS011;3122;48.208;11.174;2023-04-03T21:56:55;3.60;;;3.30;;
6177;SDS011;3122;48.208;11.174;2023-04-03T22:01:56;6.73;;;3.80;;
6177;SDS011;3122;48.208;11.174;2023-04-03T22:06:56;4.83;;;3.80;;
6177;SDS011;3122;48.208;11.174;2023-04-03T22:11:57;4.17;;;3.33;;
6177;SDS011;3122;48.208;11.174;2023-04-03T22:16:57;5.17;;;3.80;;
6177;SDS011;3122;48.208;11.174;2023-04-03T22:21:58;7.50;;;3.60;;
6177;SDS011;3122;48.208;11.174;2023-04-03T22:27:01;5.00;;;3.47;;
6177;SDS011;3122;48.208;11.174;2023-04-03T22:32:01;3.73;;;3.33;;
6177;SDS011;3122;48.208;11.174;2023-04-03T22:37:02;5.30;;;3.10;;
6177;SDS011;3122;48.208;11.174;2023-04-03T22:42:03;4.87;;;3.23;;
6177;SDS011;3122;48.208;11.174;2023-04-03T22:47:04;5.00;;;3.20;;
6177;SDS011;3122;48.208;11.174;2023-04-03T22:52:05;4.60;;;3.33;;
6177;SDS011;3122;48.208;11.174;2023-04-03T22:57:06;4.53;;;3.33;;
6177;SDS011;3122;48.208;11.174;2023-04-03T23:02:08;4.23;;;3.03;;
6177;SDS011;3122;48.208;11.174;2023-04-03T23:07:09;14.63;;;4.83;;
6177;SDS011;3122;48.208;11.174;2023-04-03T23:12:09;3.97;;;3.50;;
6177;SDS011;3122;48.208;11.174;2023-04-03T23:17:10;3.20;;;2.80;;
6177;SDS011;3122;48.208;11.174;2023-04-03T23:22:11;5.17;;;3.10;;
6177;SDS011;3122;48.208;11.174;2023-04-03T23:27:13;5.80;;;3.20;;
6177;SDS011;3122;48.208;11.174;2023-04-03T23:32:14;3.40;;;3.10;;
6177;SDS011;3122;48.208;11.174;2023-04-03T23:37:15;5.27;;;3.53;;
6177;SDS011;3122;48.208;11.174;2023-04-03T23:42:16;3.80;;;3.03;;
6177;SDS011;3122;48.208;11.174;2023-04-03T23:47:17;3.77;;;3.30;;
6177;SDS011;3122;48.208;11.174;2023-04-03T23:52:17;7.83;;;3.03;;
6177;SDS011;3122;48.208;11.174;2023-04-03T23:57:18;4.63;;;3.27;;
